FlightSource - Aviation Photo Database

World Wide Airport Lookup


Search by ICAO
Or
Search by City

FlightSource.ca - Aviation Photo Database - Lungi International Airport Information
Airport Identification
Name: Lungi International Airport
ICAO: GFLL
IATA: FNA
Airport Location
City: Freetown
Region: N
Country: Sierra Leone
Continent: Africa
Latitude: 8.61644
Longitude: -13.1955
Airport Information
Type: Medium Airport
Elevation: 84 Feet ASL
Flight Status: GFLL
More Info: GFLL
Airport Weather    
Metar: GFLL 180800Z 12004KT 9999 BKN012 FEW027CB 26/24 Q1011 RMK CB-SE
TAF:


Advertisement